This is the latest recevied weather packets stored in our database for station/object W8DRH-13. If no packets are shown the sender has not sent any weather packets the latest 1 day(s).
| Time | Temp. | Humidity | Pressure | Rain* | Wind** | Luminosity | Snow |
|---|---|---|---|---|---|---|---|
| 1778082795 | 12.22° C | 72% | 1009.7 hPa | 0 mm | - | 635 W/m² | - |
| 1778081668 | 11.67° C | 74% | 1009.5 hPa | 0 mm | - | 653 W/m² | - |
| 1778080761 | 11.11° C | 75% | 1009.4 hPa | 0 mm | - | 751 W/m² | - |
| 1778080155 | 11.11° C | 75% | 1009.7 hPa | 0 mm | - | 767 W/m² | - |
| 1778078942 | 10.56° C | 76% | 1009.5 hPa | 0 mm | - | 780 W/m² | - |
| 1778078033 | 10.56° C | 79% | 1009.1 hPa | 0 mm | - | 761 W/m² | - |
| 1778076825 | 9.44° C | 80% | 1008.5 hPa | 0 mm | - | 652 W/m² | - |
| 1778076523 | 9.44° C | 82% | 1008.5 hPa | 0 mm | - | 629 W/m² | - |
| 1778075613 | 8.33° C | 83% | 1008.5 hPa | 0 mm | - | 266 W/m² | - |
| 1778075006 | 7.78° C | 87% | 1008.6 hPa | 0 mm | - | 225 W/m² | - |
| 1778072581 | 6.67° C | 99% | 1008.6 hPa | 0 mm | - | 107 W/m² | - |
| 1778071977 | 6.67° C | 99% | 1008.4 hPa | 0 mm | - | 111 W/m² | - |
| 1778069860 | 6.11° C | 99% | 1007.9 hPa | 0 mm | - | 42 W/m² | - |
| 1778068347 | 6.11° C | 99% | 1007.2 hPa | 0 mm | - | 26 W/m² | - |
| 1778067742 | 5.56° C | 99% | 1006.8 hPa | 0 mm | - | 42 W/m² | - |
| 1778065321 | 5.56° C | 99% | 1007.1 hPa | 0 mm | - | 6 W/m² | - |
| 1778064110 | 5.56° C | 99% | 1006.3 hPa | 0 mm | - | 1 W/m² | - |
| 1778062899 | 5.56° C | 99% | 1006.6 hPa | 0 mm | - | 0 W/m² | - |
| 1778062292 | 6.11° C | 99% | 1006.4 hPa | 0 mm | - | 0 W/m² | - |
| 1778061387 | 6.67° C | 99% | 1005.8 hPa | 0 mm | - | 0 W/m² | - |
| 1778060781 | 7.22° C | 99% | 1005.6 hPa | 0 mm | - | 0 W/m² | - |
| 1778060177 | 7.22° C | 99% | 1005.8 hPa | 0 mm | - | 0 W/m² | - |
| 1778059874 | 7.22° C | 99% | 1005.6 hPa | 0 mm | - | 0 W/m² | - |
| 1778059572 | 7.22° C | 99% | 1005.4 hPa | 0 mm | - | 0 W/m² | - |
| 1778056844 | 6.67° C | 99% | 1006 hPa | 0 mm | - | 0 W/m² | - |
* Rain latest hour (hover to see other rain measurements)
** Current wind speed in m/s (hover to see current wind gust speed)